createdAt,value
2023-05-01T00:01:50.535Z,98303.50
2023-05-01T00:03:55.430Z,98296.59
2023-05-01T00:06:04.997Z,98297.50
2023-05-01T00:08:10.162Z,98296.66
2023-05-01T00:10:14.838Z,98293.09
2023-05-01T00:12:22.450Z,98302.03
2023-05-01T00:14:27.036Z,98289.81
2023-05-01T00:16:36.839Z,98292.44
2023-05-01T00:18:42.370Z,98289.75
2023-05-01T00:20:47.026Z,98289.06
2023-05-01T00:22:53.830Z,98287.34
2023-05-01T00:24:58.471Z,98277.84
2023-05-01T00:27:03.369Z,98282.38
2023-05-01T00:29:10.586Z,98273.94
2023-05-01T00:31:15.700Z,98272.38
2023-05-01T00:33:20.397Z,98278.69
2023-05-01T00:35:25.445Z,98272.00
2023-05-01T00:37:30.077Z,98266.16
2023-05-01T00:39:34.706Z,98266.25
2023-05-01T00:41:39.636Z,98269.00
2023-05-01T00:43:44.210Z,98267.53
2023-05-01T00:45:54.020Z,98259.84
2023-05-01T00:47:59.215Z,98258.41
2023-05-01T00:50:04.216Z,98255.94
2023-05-01T00:52:10.099Z,98253.38
2023-05-01T00:54:14.794Z,98253.38
2023-05-01T00:56:19.513Z,98258.69
2023-05-01T00:58:24.145Z,98254.81
2023-05-01T01:00:29.729Z,98248.72
2023-05-01T01:02:37.385Z,98244.53
2023-05-01T01:04:43.404Z,98242.03
2023-05-01T01:06:52.259Z,98245.47
2023-05-01T01:09:07.965Z,98234.03
2023-05-01T01:11:18.059Z,98241.03
2023-05-01T01:13:26.311Z,98234.03
2023-05-01T01:15:34.921Z,98233.09
2023-05-01T01:17:47.794Z,98229.41
2023-05-01T01:20:06.768Z,98229.41
2023-05-01T01:22:13.735Z,98224.34
2023-05-01T01:24:34.170Z,98227.25
2023-05-01T01:26:55.361Z,98226.56
2023-05-01T01:29:27.335Z,98226.56
2023-05-01T01:31:37.405Z,98225.09
2023-05-01T01:34:04.399Z,98227.81
2023-05-01T01:36:11.989Z,98226.34
2023-05-01T01:38:19.559Z,98221.16
2023-05-01T01:40:27.301Z,98222.28
2023-05-01T01:42:40.619Z,98223.13
2023-05-01T01:44:51.072Z,98224.88
2023-05-01T01:46:57.229Z,98223.19
2023-05-01T01:49:07.267Z,98224.97
2023-05-01T01:51:23.726Z,98218.97
2023-05-01T01:53:29.473Z,98215.72
2023-05-01T01:55:36.104Z,98219.97
2023-05-01T01:57:43.302Z,98219.91
2023-05-01T01:59:49.761Z,98224.34
2023-05-01T02:01:56.532Z,98210.81
2023-05-01T02:04:06.285Z,98216.03
2023-05-01T02:06:11.361Z,98211.66
2023-05-01T02:08:16.884Z,98209.28
2023-05-01T02:10:22.969Z,98206.09
2023-05-01T02:12:28.707Z,98205.41
2023-05-01T02:14:34.959Z,98202.72
2023-05-01T02:16:41.060Z,98206.31
2023-05-01T02:18:46.708Z,98202.28
2023-05-01T02:20:55.324Z,98210.13
2023-05-01T02:23:01.061Z,98203.22
2023-05-01T02:25:07.248Z,98205.81
2023-05-01T02:27:15.230Z,98205.03
2023-05-01T02:29:19.944Z,98198.84
2023-05-01T02:31:24.661Z,98196.09
2023-05-01T02:33:29.306Z,98190.13
2023-05-01T02:35:33.992Z,98188.50
2023-05-01T02:37:41.474Z,98191.31
2023-05-01T02:39:46.623Z,98187.94
2023-05-01T02:41:52.650Z,98187.88
2023-05-01T02:44:01.476Z,98186.44
2023-05-01T02:46:07.105Z,98176.94
2023-05-01T02:48:14.041Z,98180.34
2023-05-01T02:50:22.113Z,98185.41
2023-05-01T02:52:27.825Z,98182.09
2023-05-01T02:54:47.663Z,98181.31
2023-05-01T02:56:52.497Z,98194.25
2023-05-01T02:58:57.395Z,98196.13
2023-05-01T03:01:02.115Z,98189.47
2023-05-01T03:03:07.026Z,98193.94
2023-05-01T03:05:12.424Z,98189.56
2023-05-01T03:07:17.829Z,98184.56
2023-05-01T03:09:22.509Z,98181.16
2023-05-01T03:11:29.709Z,98189.91
2023-05-01T03:13:34.356Z,98181.25
2023-05-01T03:15:38.969Z,98179.63
2023-05-01T03:17:43.680Z,98181.44
2023-05-01T03:19:49.232Z,98176.38
2023-05-01T03:21:53.872Z,98176.31
2023-05-01T03:23:58.465Z,98178.09
2023-05-01T03:26:03.144Z,98169.28
2023-05-01T03:28:10.351Z,98167.44
2023-05-01T03:30:16.132Z,98171.75
2023-05-01T03:32:21.748Z,98172.59
2023-05-01T03:34:27.642Z,98170.00
2023-05-01T03:36:34.035Z,98163.06
2023-05-01T03:38:39.166Z,98162.22
2023-05-01T03:40:49.336Z,98163.22
2023-05-01T03:43:19.101Z,98171.91
2023-05-01T03:45:23.928Z,98159.25
2023-05-01T03:47:29.211Z,98156.03
2023-05-01T03:49:33.944Z,98156.19
2023-05-01T03:51:38.651Z,98154.75
2023-05-01T03:53:43.351Z,98163.41
2023-05-01T03:55:48.110Z,98153.34
2023-05-01T03:57:52.901Z,98146.44
2023-05-01T04:00:01.178Z,98148.19
2023-05-01T04:02:09.181Z,98149.03
2023-05-01T04:04:15.796Z,98156.78
2023-05-01T04:06:24.824Z,98148.13
2023-05-01T04:08:29.601Z,98146.38
2023-05-01T04:10:34.391Z,98143.06
2023-05-01T04:12:44.811Z,98153.41
2023-05-01T04:14:49.763Z,98146.44
2023-05-01T04:16:57.820Z,98145.69
2023-05-01T04:19:02.691Z,98141.31
2023-05-01T04:21:09.114Z,98151.59
2023-05-01T04:23:17.046Z,98146.44
2023-05-01T04:25:21.828Z,98143.06
2023-05-01T04:27:28.611Z,98138.91
2023-05-01T04:29:33.220Z,98139.97
2023-05-01T04:31:38.129Z,98141.59
2023-05-01T04:33:45.744Z,98140.78
2023-05-01T04:35:50.871Z,98141.84
2023-05-01T04:37:55.592Z,98138.38
2023-05-01T04:40:01.007Z,98134.94
2023-05-01T04:42:05.848Z,98135.78
2023-05-01T04:44:11.019Z,98140.09
2023-05-01T04:46:15.772Z,98142.75
2023-05-01T04:48:21.109Z,98144.56
2023-05-01T04:50:28.471Z,98145.22
2023-05-01T04:52:33.206Z,98144.25
2023-05-01T04:54:42.128Z,98151.78
2023-05-01T04:56:46.972Z,98146.28
2023-05-01T04:58:53.632Z,98141.53
2023-05-01T05:01:01.067Z,98141.44
2023-05-01T05:03:05.975Z,98141.59
2023-05-01T05:05:11.219Z,98143.06
2023-05-01T05:07:18.497Z,98144.50
2023-05-01T05:09:41.832Z,98131.91
2023-05-01T05:11:46.511Z,98133.66
2023-05-01T05:13:58.462Z,98127.53
2023-05-01T05:16:03.692Z,98133.44
2023-05-01T05:18:09.338Z,98132.72
2023-05-01T05:20:14.337Z,98131.81
2023-05-01T05:22:21.741Z,98139.56
2023-05-01T05:24:49.260Z,98133.00
2023-05-01T05:26:55.084Z,98132.16
2023-05-01T05:28:59.799Z,98141.59
2023-05-01T05:31:05.036Z,98139.69
2023-05-01T05:33:10.802Z,98143.63
2023-05-01T05:35:16.189Z,98137.38
2023-05-01T05:37:24.512Z,98139.06
2023-05-01T05:39:30.768Z,98129.81
2023-05-01T05:41:36.322Z,98131.63
2023-05-01T05:43:41.111Z,98128.81
2023-05-01T05:45:46.698Z,98131.41
2023-05-01T05:47:52.843Z,98121.47
2023-05-01T05:49:57.946Z,98119.41
2023-05-01T05:52:03.209Z,98116.44
2023-05-01T05:54:10.756Z,98118.94
2023-05-01T05:56:15.895Z,98106.34
2023-05-01T05:58:20.736Z,98109.84
2023-05-01T06:00:26.982Z,98110.31
2023-05-01T06:02:33.102Z,98117.09
2023-05-01T06:04:37.811Z,98104.47
2023-05-01T06:06:42.898Z,98109.31
2023-05-01T06:08:47.647Z,98108.06
2023-05-01T06:10:55.553Z,98100.41
2023-05-01T06:13:07.056Z,98102.69
2023-05-01T06:15:23.118Z,98105.03
2023-05-01T06:17:31.711Z,98098.06
2023-05-01T06:19:36.439Z,98103.50
2023-05-01T06:21:45.696Z,98104.19
2023-05-01T06:23:50.780Z,98098.41
2023-05-01T06:26:08.246Z,98095.34
2023-05-01T06:28:13.011Z,98096.72
2023-05-01T06:30:19.979Z,98088.56
2023-05-01T06:32:24.724Z,98089.16
2023-05-01T06:34:29.491Z,98083.16
2023-05-01T06:36:34.275Z,98084.94
2023-05-01T06:38:45.019Z,98083.81
2023-05-01T06:40:53.851Z,98076.41
2023-05-01T06:43:01.117Z,98074.50
2023-05-01T06:45:06.642Z,98077.16
2023-05-01T06:47:11.570Z,98076.84
2023-05-01T06:49:18.209Z,98069.91
2023-05-01T06:51:23.353Z,98069.84
2023-05-01T06:53:27.989Z,98071.69
2023-05-01T06:55:34.553Z,98071.16
2023-05-01T06:57:40.660Z,98077.31
2023-05-01T06:59:47.932Z,98077.03
2023-05-01T07:01:52.660Z,98078.75
2023-05-01T07:03:57.363Z,98074.66
2023-05-01T07:06:02.063Z,98077.38
2023-05-01T07:08:06.892Z,98081.06
2023-05-01T07:10:11.863Z,98083.38
2023-05-01T07:12:16.529Z,98085.38
2023-05-01T07:14:21.128Z,98084.75
2023-05-01T07:16:28.429Z,98073.94
2023-05-01T07:18:33.160Z,98076.44
2023-05-01T07:20:37.790Z,98070.19
2023-05-01T07:22:51.764Z,98068.06
2023-05-01T07:24:56.382Z,98071.91
2023-05-01T07:27:01.019Z,98063.94
2023-05-01T07:29:05.708Z,98063.47
2023-05-01T07:31:12.479Z,98060.69
2023-05-01T07:33:19.765Z,98054.59
2023-05-01T07:35:24.570Z,98053.31
2023-05-01T07:37:29.550Z,98047.31
2023-05-01T07:39:34.241Z,98047.28
2023-05-01T07:41:38.826Z,98046.91
2023-05-01T07:43:43.483Z,98043.13
2023-05-01T07:45:57.453Z,98048.97
2023-05-01T07:48:02.350Z,98046.94
2023-05-01T07:50:12.550Z,98049.28
2023-05-01T07:52:17.353Z,98042.38
2023-05-01T07:54:22.509Z,98030.16
2023-05-01T07:56:27.490Z,98028.59
2023-05-01T07:58:32.243Z,98029.88
2023-05-01T08:00:37.844Z,98028.72
2023-05-01T08:02:43.799Z,98023.06
2023-05-01T08:04:49.122Z,98024.22
2023-05-01T08:06:56.491Z,98022.09
2023-05-01T08:09:01.173Z,98025.81
2023-05-01T08:11:05.977Z,98024.53
2023-05-01T08:13:10.662Z,98013.19
2023-05-01T08:15:15.274Z,98009.63
2023-05-01T08:17:20.486Z,98013.50
2023-05-01T08:19:25.413Z,98015.47
2023-05-01T08:21:30.063Z,98015.16
2023-05-01T08:23:37.393Z,98009.59
2023-05-01T08:25:42.081Z,98012.22
2023-05-01T08:27:46.738Z,98010.38
2023-05-01T08:29:51.698Z,98013.88
2023-05-01T08:31:56.430Z,98014.72
2023-05-01T08:34:01.216Z,98002.31
2023-05-01T08:36:05.874Z,98011.03
2023-05-01T08:38:10.501Z,98007.25
2023-05-01T08:40:17.852Z,97998.41
2023-05-01T08:42:22.537Z,98006.09
2023-05-01T08:44:28.206Z,98003.84
2023-05-01T08:46:41.489Z,98011.53
2023-05-01T08:48:47.146Z,98006.19
2023-05-01T08:50:52.543Z,98008.41
2023-05-01T08:52:58.814Z,98007.28
2023-05-01T08:55:03.717Z,98009.88
2023-05-01T08:57:11.894Z,98014.50
2023-05-01T08:59:17.791Z,98011.34
2023-05-01T09:01:23.212Z,98007.88
2023-05-01T09:03:29.924Z,98009.88
2023-05-01T09:05:35.975Z,98011.75
2023-05-01T09:07:41.011Z,98009.66
2023-05-01T09:09:46.680Z,98007.34
2023-05-01T09:11:51.613Z,98003.06
2023-05-01T09:13:59.075Z,98003.88
2023-05-01T09:16:03.823Z,98002.38
2023-05-01T09:18:10.434Z,98000.72
2023-05-01T09:20:15.235Z,98005.34
2023-05-01T09:22:20.984Z,98004.28
2023-05-01T09:24:26.890Z,98000.00
2023-05-01T09:26:31.522Z,98002.06
2023-05-01T09:28:45.130Z,98004.22
2023-05-01T09:30:52.511Z,98001.78
2023-05-01T09:33:06.910Z,98006.47
2023-05-01T09:35:15.198Z,98004.78
2023-05-01T09:37:28.615Z,98003.50
2023-05-01T09:39:33.326Z,97999.44
2023-05-01T09:41:37.969Z,97994.50
2023-05-01T09:43:44.071Z,98004.53
2023-05-01T09:46:02.121Z,98006.56
2023-05-01T09:48:14.315Z,98001.56
2023-05-01T09:50:31.407Z,98010.56
2023-05-01T09:52:36.131Z,98005.56
2023-05-01T09:54:40.748Z,98000.31
2023-05-01T09:56:49.535Z,98003.78
2023-05-01T09:58:54.859Z,98006.88
2023-05-01T10:01:02.164Z,98009.03
2023-05-01T10:03:16.147Z,98005.22
2023-05-01T10:05:21.271Z,98008.69
2023-05-01T10:07:25.945Z,98014.06
2023-05-01T10:09:33.443Z,98009.78
2023-05-01T10:11:52.784Z,98013.34
2023-05-01T10:14:08.975Z,98010.59
2023-05-01T10:16:28.449Z,98013.69
2023-05-01T10:18:37.693Z,98012.47
2023-05-01T10:20:45.778Z,98023.44
2023-05-01T10:22:50.724Z,98016.47
2023-05-01T10:24:55.985Z,98014.44
2023-05-01T10:27:00.945Z,98016.84
2023-05-01T10:29:06.161Z,98012.28
2023-05-01T10:31:11.527Z,98019.28
2023-05-01T10:33:16.530Z,98026.97
2023-05-01T10:35:27.189Z,98024.59
2023-05-01T10:37:37.475Z,98026.09
2023-05-01T10:39:44.794Z,98037.66
2023-05-01T10:42:11.133Z,98043.81
2023-05-01T10:44:25.784Z,98034.31
2023-05-01T10:46:30.787Z,98036.06
2023-05-01T10:48:53.497Z,98036.44
2023-05-01T10:51:13.677Z,98031.22
2023-05-01T10:53:21.446Z,98041.28
2023-05-01T10:55:35.503Z,98044.47
2023-05-01T10:57:47.052Z,98042.19
2023-05-01T11:00:06.671Z,98043.19
2023-05-01T11:02:26.532Z,98049.19
2023-05-01T11:04:47.538Z,98072.25
2023-05-01T11:07:08.022Z,98062.25
2023-05-01T11:09:39.917Z,98069.59
2023-05-01T11:11:56.137Z,98068.41
2023-05-01T11:14:01.018Z,98072.56
2023-05-01T11:16:40.843Z,98070.84
2023-05-01T11:18:49.264Z,98071.22
2023-05-01T11:20:53.949Z,98075.78
2023-05-01T11:22:59.306Z,98078.88
2023-05-01T11:25:04.749Z,98077.59
2023-05-01T11:27:15.981Z,98081.94
2023-05-01T11:29:20.918Z,98083.47
2023-05-01T11:31:25.720Z,98079.69
2023-05-01T11:33:30.669Z,98089.75
2023-05-01T11:35:35.663Z,98083.63
2023-05-01T11:37:44.540Z,98083.38
2023-05-01T11:39:53.411Z,98083.81
2023-05-01T11:42:09.284Z,98078.22
2023-05-01T11:44:18.274Z,98079.44
2023-05-01T11:46:27.767Z,98079.88
2023-05-01T11:48:33.092Z,98076.00
2023-05-01T11:50:40.601Z,98080.81
2023-05-01T11:52:46.991Z,98083.16
2023-05-01T11:54:54.045Z,98078.41
2023-05-01T11:57:02.661Z,98077.97
2023-05-01T11:59:15.856Z,98076.56
2023-05-01T12:01:23.160Z,98070.25
2023-05-01T12:03:28.645Z,98079.63
2023-05-01T12:05:35.700Z,98075.97
2023-05-01T12:07:40.695Z,98072.50
2023-05-01T12:09:45.428Z,98072.78
2023-05-01T12:11:52.408Z,98076.25
2023-05-01T12:13:57.740Z,98079.38
2023-05-01T12:16:03.554Z,98073.03
2023-05-01T12:18:11.496Z,98078.28
2023-05-01T12:20:16.153Z,98069.34
2023-05-01T12:22:20.811Z,98078.19
2023-05-01T12:24:25.428Z,98075.91
2023-05-01T12:26:30.117Z,98069.72
2023-05-01T12:28:34.741Z,98074.28
2023-05-01T12:30:39.938Z,98065.94
2023-05-01T12:32:44.641Z,98066.06
2023-05-01T12:34:54.173Z,98061.84
2023-05-01T12:36:58.896Z,98067.34
2023-05-01T12:39:04.564Z,98058.66
2023-05-01T12:41:12.236Z,98054.84
2023-05-01T12:43:17.107Z,98055.88
2023-05-01T12:45:21.747Z,98046.56
2023-05-01T12:47:26.424Z,98053.84
2023-05-01T12:49:31.841Z,98048.00
2023-05-01T12:51:42.470Z,98047.78
2023-05-01T12:53:47.327Z,98055.94
2023-05-01T12:55:52.960Z,98057.94
2023-05-01T12:57:57.796Z,98051.13
2023-05-01T13:00:03.208Z,98047.31
2023-05-01T13:02:08.625Z,98054.88
2023-05-01T13:04:13.605Z,98040.06
2023-05-01T13:06:18.325Z,98042.50
2023-05-01T13:08:32.486Z,98048.63
2023-05-01T13:10:37.202Z,98034.13
2023-05-01T13:12:47.613Z,98031.41
2023-05-01T13:14:53.084Z,98031.09
2023-05-01T13:16:57.926Z,98033.34
2023-05-01T13:19:05.886Z,98029.69
2023-05-01T13:21:12.346Z,98033.66
2023-05-01T13:23:19.822Z,98036.06
2023-05-01T13:25:27.479Z,98038.78
2023-05-01T13:27:32.628Z,98033.94
2023-05-01T13:29:39.842Z,98039.56
2023-05-01T13:31:45.892Z,98036.16
2023-05-01T13:33:53.673Z,98040.63
2023-05-01T13:35:59.555Z,98036.63
2023-05-01T13:38:06.410Z,98034.94
2023-05-01T13:40:12.051Z,98034.75
2023-05-01T13:42:23.471Z,98033.47
2023-05-01T13:44:29.453Z,98030.91
2023-05-01T13:46:34.388Z,98024.75
2023-05-01T13:48:39.188Z,98019.19
2023-05-01T13:50:49.845Z,98018.59
2023-05-01T13:52:55.753Z,98018.59
2023-05-01T13:55:06.021Z,98017.47
2023-05-01T13:57:11.007Z,98020.03
2023-05-01T13:59:18.363Z,98019.84
2023-05-01T14:01:23.708Z,98014.44
2023-05-01T14:03:28.874Z,98021.25
2023-05-01T14:05:33.511Z,98012.00
2023-05-01T14:07:42.815Z,98017.38
2023-05-01T14:09:48.420Z,98022.41
2023-05-01T14:11:54.190Z,98021.44
2023-05-01T14:14:01.788Z,98018.19
2023-05-01T14:16:13.417Z,98019.44
2023-05-01T14:18:19.733Z,98018.94
2023-05-01T14:20:27.855Z,98014.44
2023-05-01T14:22:32.587Z,98018.22
2023-05-01T14:24:38.710Z,98015.19
2023-05-01T14:26:46.797Z,98011.59
2023-05-01T14:28:51.746Z,98007.72
2023-05-01T14:30:56.449Z,98014.88
2023-05-01T14:33:04.197Z,98013.16
2023-05-01T14:35:11.846Z,98005.41
2023-05-01T14:37:17.180Z,98013.22
2023-05-01T14:39:22.048Z,98008.06
2023-05-01T14:41:26.787Z,98008.78
2023-05-01T14:43:31.702Z,98014.56
2023-05-01T14:45:38.776Z,98017.97
2023-05-01T14:47:44.103Z,98019.03
2023-05-01T14:49:53.929Z,98013.31
2023-05-01T14:51:58.691Z,98021.00
2023-05-01T14:54:03.761Z,98020.56
2023-05-01T14:56:08.924Z,98017.13
2023-05-01T14:58:13.688Z,98018.53
2023-05-01T15:00:19.172Z,98019.00
2023-05-01T15:02:23.934Z,98019.75
2023-05-01T15:04:28.984Z,98014.34
2023-05-01T15:06:36.470Z,98013.59
2023-05-01T15:08:41.336Z,98017.72
2023-05-01T15:10:46.276Z,98009.22
2023-05-01T15:12:54.570Z,98015.78
2023-05-01T15:14:59.382Z,98021.22
2023-05-01T15:17:04.211Z,98018.50
2023-05-01T15:19:08.889Z,98023.09
2023-05-01T15:21:13.554Z,98018.94
2023-05-01T15:23:20.814Z,98017.63
2023-05-01T15:25:25.425Z,98010.97
2023-05-01T15:27:30.169Z,98016.47
2023-05-01T15:29:34.946Z,98013.75
2023-05-01T15:31:41.920Z,98024.09
2023-05-01T15:33:46.880Z,98014.56
2023-05-01T15:35:52.929Z,98014.31
2023-05-01T15:37:57.840Z,98014.31
2023-05-01T15:40:05.679Z,98008.16
2023-05-01T15:42:10.323Z,98013.94
2023-05-01T15:44:15.233Z,98018.97
2023-05-01T15:46:20.122Z,98016.38
2023-05-01T15:48:24.887Z,98009.38
2023-05-01T15:50:29.911Z,98019.38
2023-05-01T15:52:35.177Z,98007.16
2023-05-01T15:54:42.229Z,98014.78
2023-05-01T15:56:49.467Z,98022.53
2023-05-01T15:58:54.095Z,98019.47
2023-05-01T16:00:58.769Z,98013.28
2023-05-01T16:03:04.704Z,98017.13
2023-05-01T16:05:10.252Z,98012.66
2023-05-01T16:07:15.576Z,98017.44
2023-05-01T16:09:20.375Z,98007.63
2023-05-01T16:11:25.433Z,98009.19
2023-05-01T16:13:32.737Z,98007.50
2023-05-01T16:15:37.406Z,98007.00
2023-05-01T16:17:45.606Z,98007.09
2023-05-01T16:19:52.570Z,98009.63
2023-05-01T16:21:57.245Z,98011.09
2023-05-01T16:24:04.152Z,98005.00
2023-05-01T16:26:09.109Z,98001.97
2023-05-01T16:28:14.346Z,98006.28
2023-05-01T16:30:24.731Z,98010.03
2023-05-01T16:32:29.539Z,98009.28
2023-05-01T16:34:34.336Z,98008.00
2023-05-01T16:36:42.680Z,98006.84
2023-05-01T16:38:47.981Z,98011.66
2023-05-01T16:40:52.649Z,98012.00
2023-05-01T16:43:01.011Z,98009.72
2023-05-01T16:45:06.616Z,98008.66
2023-05-01T16:47:16.798Z,98004.16
2023-05-01T16:49:21.407Z,98008.66
2023-05-01T16:51:26.543Z,98008.56
2023-05-01T16:53:32.315Z,98008.41
2023-05-01T16:55:36.943Z,98015.47
2023-05-01T16:57:43.719Z,98013.81
2023-05-01T16:59:49.116Z,98003.50
2023-05-01T17:01:54.047Z,98014.72
2023-05-01T17:04:01.586Z,98008.44
2023-05-01T17:06:09.187Z,98012.00
2023-05-01T17:08:14.052Z,98014.72
2023-05-01T17:10:18.778Z,98014.13
2023-05-01T17:12:23.796Z,98010.06
2023-05-01T17:14:29.005Z,98011.22
2023-05-01T17:16:33.780Z,98010.69
2023-05-01T17:18:41.448Z,98017.91
2023-05-01T17:20:48.887Z,98019.31
2023-05-01T17:22:53.701Z,98022.13
2023-05-01T17:25:02.392Z,98018.84
2023-05-01T17:27:07.911Z,98024.75
2023-05-01T17:29:12.525Z,98022.59
2023-05-01T17:31:18.793Z,98024.47
2023-05-01T17:33:25.161Z,98027.97
2023-05-01T17:35:29.861Z,98023.69
2023-05-01T17:37:39.979Z,98026.88
2023-05-01T17:39:44.821Z,98021.25
2023-05-01T17:41:49.468Z,98022.09
2023-05-01T17:43:55.382Z,98028.94
2023-05-01T17:46:00.115Z,98031.75
2023-05-01T17:48:04.766Z,98037.13
2023-05-01T17:50:10.202Z,98037.97
2023-05-01T17:52:15.218Z,98031.69
2023-05-01T17:54:22.592Z,98038.78
2023-05-01T17:56:28.455Z,98031.88
2023-05-01T17:58:33.307Z,98031.09
2023-05-01T18:00:38.027Z,98033.16
2023-05-01T18:02:45.187Z,98038.78
2023-05-01T18:04:51.229Z,98045.03
2023-05-01T18:06:56.557Z,98046.06
2023-05-01T18:09:01.501Z,98046.72
2023-05-01T18:11:08.960Z,98047.31
2023-05-01T18:13:13.576Z,98054.84
2023-05-01T18:15:22.570Z,98058.31
2023-05-01T18:17:28.051Z,98063.00
2023-05-01T18:19:32.735Z,98053.63
2023-05-01T18:21:37.357Z,98060.53
2023-05-01T18:23:42.033Z,98058.88
2023-05-01T18:25:46.679Z,98065.31
2023-05-01T18:27:55.311Z,98060.91
2023-05-01T18:30:00.172Z,98069.44
2023-05-01T18:32:05.223Z,98078.31
2023-05-01T18:34:10.387Z,98077.56
2023-05-01T18:36:14.970Z,98073.16
2023-05-01T18:38:19.646Z,98075.88
2023-05-01T18:40:24.586Z,98075.88
2023-05-01T18:42:29.239Z,98081.31
2023-05-01T18:44:36.486Z,98085.97
2023-05-01T18:46:41.576Z,98092.97
2023-05-01T18:48:46.460Z,98096.69
2023-05-01T18:51:06.724Z,98101.38
2023-05-01T18:53:12.929Z,98105.91
2023-05-01T18:55:17.547Z,98109.56
2023-05-01T18:57:22.756Z,98107.00
2023-05-01T18:59:31.134Z,98115.19
2023-05-01T19:01:38.994Z,98114.53
2023-05-01T19:03:43.616Z,98120.84
2023-05-01T19:05:48.577Z,98128.78
2023-05-01T19:07:55.414Z,98125.31
2023-05-01T19:10:00.279Z,98134.19
2023-05-01T19:12:05.318Z,98130.63
2023-05-01T19:14:09.958Z,98129.69
2023-05-01T19:16:14.730Z,98128.03
2023-05-01T19:18:22.359Z,98136.97
2023-05-01T19:20:27.145Z,98142.13
2023-05-01T19:22:31.793Z,98140.25
2023-05-01T19:24:36.516Z,98145.31
2023-05-01T19:26:41.151Z,98140.09
2023-05-01T19:28:45.787Z,98148.88
2023-05-01T19:30:50.495Z,98145.47
2023-05-01T19:32:55.173Z,98139.84
2023-05-01T19:35:02.440Z,98139.84
2023-05-01T19:37:07.236Z,98146.09
2023-05-01T19:39:12.868Z,98149.69
2023-05-01T19:41:18.011Z,98150.59
2023-05-01T19:43:22.666Z,98158.44
2023-05-01T19:45:27.369Z,98159.38
2023-05-01T19:47:32.128Z,98161.16
2023-05-01T19:49:36.980Z,98151.78
2023-05-01T19:51:44.490Z,98157.09
2023-05-01T19:53:49.186Z,98161.66
2023-05-01T19:55:53.832Z,98159.22
2023-05-01T19:57:58.423Z,98163.22
2023-05-01T20:00:03.264Z,98162.56
2023-05-01T20:02:14.754Z,98166.94
2023-05-01T20:04:19.430Z,98175.69
2023-05-01T20:06:24.387Z,98168.63
2023-05-01T20:08:31.601Z,98174.00
2023-05-01T20:10:36.600Z,98169.78
2023-05-01T20:12:42.269Z,98181.16
2023-05-01T20:14:46.978Z,98179.38
2023-05-01T20:16:53.281Z,98182.50
2023-05-01T20:18:58.034Z,98183.56
2023-05-01T20:21:02.902Z,98183.81
2023-05-01T20:23:13.884Z,98188.19
2023-05-01T20:25:21.201Z,98199.72
2023-05-01T20:27:26.419Z,98200.03
2023-05-01T20:29:31.025Z,98202.75
2023-05-01T20:31:36.276Z,98203.78
2023-05-01T20:33:40.979Z,98202.34
2023-05-01T20:35:45.596Z,98205.19
2023-05-01T20:37:50.313Z,98202.75
2023-05-01T20:39:54.971Z,98205.50
2023-05-01T20:42:02.242Z,98199.50
2023-05-01T20:44:07.106Z,98211.00
2023-05-01T20:46:11.751Z,98206.81
2023-05-01T20:48:16.449Z,98206.81
2023-05-01T20:50:21.115Z,98206.88
2023-05-01T20:52:25.824Z,98206.88
2023-05-01T20:54:32.648Z,98210.41
2023-05-01T20:56:37.374Z,98210.56
2023-05-01T20:58:44.572Z,98202.81
2023-05-01T21:00:49.194Z,98202.91
2023-05-01T21:02:54.187Z,98203.66
2023-05-01T21:04:58.909Z,98207.03
2023-05-01T21:07:03.547Z,98208.66
2023-05-01T21:09:11.304Z,98209.50
2023-05-01T21:11:15.949Z,98210.31
2023-05-01T21:13:21.370Z,98211.25
2023-05-01T21:15:28.836Z,98224.38
2023-05-01T21:17:35.003Z,98225.31
2023-05-01T21:19:44.463Z,98227.13
2023-05-01T21:21:49.230Z,98228.13
2023-05-01T21:23:54.222Z,98228.22
2023-05-01T21:25:59.345Z,98230.00
2023-05-01T21:28:06.228Z,98222.22
2023-05-01T21:30:11.703Z,98230.97
2023-05-01T21:32:19.338Z,98230.28
2023-05-01T21:34:23.985Z,98225.22
2023-05-01T21:36:28.744Z,98229.88
2023-05-01T21:38:33.452Z,98235.38
2023-05-01T21:40:39.553Z,98233.78
2023-05-01T21:42:44.175Z,98231.25
2023-05-01T21:44:48.889Z,98238.09
2023-05-01T21:46:55.756Z,98237.22
2023-05-01T21:49:03.201Z,98238.00
2023-05-01T21:51:08.119Z,98240.59
2023-05-01T21:53:12.791Z,98236.31
2023-05-01T21:55:20.179Z,98243.31
2023-05-01T21:57:24.838Z,98246.75
2023-05-01T21:59:30.822Z,98245.81
2023-05-01T22:01:35.578Z,98245.00
2023-05-01T22:03:42.519Z,98248.44
2023-05-01T22:05:49.950Z,98244.94
2023-05-01T22:07:55.350Z,98242.22
2023-05-01T22:10:00.349Z,98244.69
2023-05-01T22:12:05.358Z,98247.25
2023-05-01T22:14:09.983Z,98255.06
2023-05-01T22:16:15.599Z,98255.81
2023-05-01T22:18:20.334Z,98247.09
2023-05-01T22:20:25.080Z,98252.31
2023-05-01T22:22:32.338Z,98255.91
2023-05-01T22:24:37.093Z,98257.25
2023-05-01T22:26:41.919Z,98260.09
2023-05-01T22:28:46.753Z,98262.69
2023-05-01T22:30:51.497Z,98258.31
2023-05-01T22:32:56.233Z,98258.22
2023-05-01T22:35:00.978Z,98259.94
2023-05-01T22:37:05.576Z,98268.66
2023-05-01T22:39:12.834Z,98272.22
2023-05-01T22:41:17.994Z,98268.81
2023-05-01T22:43:23.781Z,98270.72
2023-05-01T22:45:28.397Z,98280.59
2023-05-01T22:47:33.088Z,98278.03
2023-05-01T22:49:37.816Z,98273.69
2023-05-01T22:51:42.473Z,98277.97
2023-05-01T22:53:47.065Z,98274.59
2023-05-01T22:55:54.468Z,98280.78
2023-05-01T22:57:59.055Z,98283.53
2023-05-01T23:00:03.969Z,98279.31
2023-05-01T23:02:08.929Z,98280.22
2023-05-01T23:04:14.394Z,98279.38
2023-05-01T23:06:19.349Z,98285.44
2023-05-01T23:08:24.198Z,98281.44
2023-05-01T23:10:31.141Z,98288.53
2023-05-01T23:12:42.819Z,98283.56
2023-05-01T23:14:48.344Z,98286.22
2023-05-01T23:16:52.948Z,98282.75
2023-05-01T23:18:58.421Z,98276.84
2023-05-01T23:21:03.524Z,98281.28
2023-05-01T23:23:08.590Z,98278.75
2023-05-01T23:25:15.443Z,98277.88
2023-05-01T23:27:22.653Z,98285.78
2023-05-01T23:29:29.959Z,98284.34
2023-05-01T23:31:34.710Z,98286.13
2023-05-01T23:33:39.963Z,98289.50
2023-05-01T23:35:44.551Z,98280.91
2023-05-01T23:37:49.517Z,98282.69
2023-05-01T23:39:54.286Z,98278.44
2023-05-01T23:41:58.861Z,98279.41
2023-05-01T23:44:03.475Z,98282.94
2023-05-01T23:46:11.365Z,98288.31
2023-05-01T23:48:16.151Z,98287.50
2023-05-01T23:50:21.610Z,98281.59
2023-05-01T23:52:26.272Z,98279.91
2023-05-01T23:54:31.722Z,98281.72
2023-05-01T23:56:36.325Z,98282.72
2023-05-01T23:58:41.039Z,98288.84
